createdAt,value
2017-08-06T00:02:10.665Z,93.30
2017-08-06T00:04:39.801Z,93.30
2017-08-06T00:07:08.149Z,94.00
2017-08-06T00:09:36.836Z,94.20
2017-08-06T00:12:05.101Z,94.10
2017-08-06T00:14:33.455Z,94.60
2017-08-06T00:17:02.093Z,92.20
2017-08-06T00:19:30.539Z,92.20
2017-08-06T00:21:58.993Z,94.80
2017-08-06T00:24:27.248Z,94.00
2017-08-06T00:26:55.620Z,93.90
2017-08-06T00:29:23.863Z,93.60
2017-08-06T00:31:52.116Z,93.70
2017-08-06T00:34:26.279Z,93.30
2017-08-06T00:37:00.791Z,92.30
2017-08-06T00:39:35.428Z,92.30
2017-08-06T00:42:09.610Z,92.30
2017-08-06T00:44:43.932Z,92.60
2017-08-06T00:47:18.036Z,92.80
2017-08-06T00:49:52.374Z,93.30
2017-08-06T00:52:26.584Z,93.10
2017-08-06T00:55:00.949Z,95.40
2017-08-06T00:57:35.054Z,94.80
2017-08-06T01:00:09.373Z,94.90
2017-08-06T01:02:43.518Z,95.50
2017-08-06T01:05:17.897Z,95.60
2017-08-06T01:07:52.158Z,96.00
2017-08-06T01:10:26.595Z,95.90
2017-08-06T01:13:01.305Z,97.50
2017-08-06T01:15:35.640Z,97.40
2017-08-06T01:18:09.901Z,96.80
2017-08-06T01:20:44.304Z,95.70
2017-08-06T01:23:18.404Z,96.30
2017-08-06T01:25:52.706Z,97.60
2017-08-06T01:28:26.786Z,95.50
2017-08-06T01:31:01.105Z,95.90
2017-08-06T01:33:35.272Z,95.10
2017-08-06T01:36:09.976Z,95.50
2017-08-06T01:38:44.523Z,95.50
2017-08-06T01:41:18.862Z,95.50
2017-08-06T01:43:53.434Z,96.70
2017-08-06T01:46:27.763Z,96.70
2017-08-06T01:49:02.001Z,95.40
2017-08-06T01:51:36.242Z,95.40
2017-08-06T01:54:04.493Z,95.30
2017-08-06T01:56:38.700Z,94.50
2017-08-06T01:59:12.940Z,95.70
2017-08-06T02:01:47.316Z,93.30
2017-08-06T02:04:21.576Z,95.70
2017-08-06T02:06:55.909Z,93.80
2017-08-06T02:09:30.719Z,91.50
2017-08-06T02:12:05.036Z,92.90
2017-08-06T02:14:39.200Z,93.80
2017-08-06T02:17:13.528Z,92.80
2017-08-06T02:19:47.705Z,94.60
2017-08-06T02:22:22.053Z,91.70
2017-08-06T02:24:56.215Z,91.80
2017-08-06T02:27:30.533Z,91.20
2017-08-06T02:30:04.776Z,92.80
2017-08-06T02:32:39.128Z,92.10
2017-08-06T02:35:13.715Z,92.50
2017-08-06T02:37:47.936Z,91.90
2017-08-06T02:40:22.104Z,92.20
2017-08-06T02:42:56.346Z,90.90
2017-08-06T02:45:30.599Z,91.30
2017-08-06T02:48:04.858Z,91.30
2017-08-06T02:50:39.108Z,91.30
2017-08-06T02:53:07.467Z,91.60
2017-08-06T02:55:41.671Z,92.20
2017-08-06T02:58:16.027Z,94.20
2017-08-06T03:00:50.232Z,91.80
2017-08-06T03:03:24.425Z,91.60
2017-08-06T03:05:58.520Z,91.20
2017-08-06T03:08:32.879Z,91.60
2017-08-06T03:11:07.033Z,90.70
2017-08-06T03:13:41.224Z,90.40
2017-08-06T03:16:15.804Z,92.00
2017-08-06T03:18:50.463Z,90.40
2017-08-06T03:21:24.600Z,90.40
2017-08-06T03:23:59.367Z,89.70
2017-08-06T03:26:33.604Z,89.70
2017-08-06T03:29:07.872Z,89.90
2017-08-06T03:31:42.028Z,90.20
2017-08-06T03:34:16.809Z,89.80
2017-08-06T03:36:50.920Z,89.90
2017-08-06T03:39:25.128Z,90.30
2017-08-06T03:41:59.323Z,89.20
2017-08-06T03:44:33.900Z,89.50
2017-08-06T03:47:08.099Z,89.50
2017-08-06T03:49:42.492Z,89.40
2017-08-06T03:52:16.725Z,89.10
2017-08-06T03:54:50.963Z,88.70
2017-08-06T03:57:25.276Z,87.80
2017-08-06T03:59:59.795Z,88.40
2017-08-06T04:02:33.989Z,88.40
2017-08-06T04:05:08.445Z,88.50
2017-08-06T04:07:42.555Z,88.10
2017-08-06T04:10:16.855Z,87.60
2017-08-06T04:12:51.004Z,89.00
2017-08-06T04:15:25.217Z,89.00
2017-08-06T04:17:59.772Z,88.30
2017-08-06T04:20:33.938Z,88.30
2017-08-06T04:23:08.125Z,88.60
2017-08-06T04:25:42.393Z,88.40
2017-08-06T04:28:16.570Z,89.10
2017-08-06T04:30:50.787Z,88.30
2017-08-06T04:33:25.055Z,88.50
2017-08-06T04:35:59.879Z,88.80
2017-08-06T04:38:34.018Z,88.50
2017-08-06T04:41:08.313Z,88.00
2017-08-06T04:43:42.609Z,88.60
2017-08-06T04:46:17.321Z,88.50
2017-08-06T04:48:51.456Z,88.50
2017-08-06T04:51:25.681Z,89.10
2017-08-06T04:53:59.988Z,88.80
2017-08-06T04:56:34.316Z,88.50
2017-08-06T04:59:08.598Z,88.50
2017-08-06T05:01:42.967Z,88.10
2017-08-06T05:04:17.613Z,88.40
2017-08-06T05:06:51.964Z,88.40
2017-08-06T05:09:26.052Z,88.50
2017-08-06T05:12:00.349Z,89.00
2017-08-06T05:14:34.582Z,89.10
2017-08-06T05:17:08.939Z,87.90
2017-08-06T05:19:43.208Z,87.30
2017-08-06T05:22:17.497Z,87.40
2017-08-06T05:24:52.044Z,87.30
2017-08-06T05:27:26.428Z,87.30
2017-08-06T05:30:00.602Z,86.70
2017-08-06T05:32:34.928Z,86.90
2017-08-06T05:35:10.360Z,86.90
2017-08-06T05:37:44.529Z,86.90
2017-08-06T05:40:18.864Z,86.60
2017-08-06T05:42:53.283Z,87.00
2017-08-06T05:45:27.512Z,86.90
2017-08-06T05:48:01.849Z,87.00
2017-08-06T05:50:36.367Z,86.70
2017-08-06T05:53:10.903Z,86.70
2017-08-06T05:55:45.059Z,86.90
2017-08-06T05:58:19.393Z,87.10
2017-08-06T06:00:53.694Z,87.10
2017-08-06T06:03:28.218Z,87.00
2017-08-06T06:06:02.803Z,86.40
2017-08-06T06:08:37.795Z,86.40
2017-08-06T06:11:12.132Z,86.10
2017-08-06T06:13:46.330Z,86.30
2017-08-06T06:16:20.709Z,86.70
2017-08-06T06:18:55.121Z,86.20
2017-08-06T06:21:29.734Z,86.10
2017-08-06T06:24:03.952Z,86.10
2017-08-06T06:26:38.320Z,86.00
2017-08-06T06:29:12.653Z,85.20
2017-08-06T06:31:46.795Z,85.50
2017-08-06T06:34:21.172Z,85.30
2017-08-06T06:36:55.297Z,84.80
2017-08-06T06:39:29.416Z,84.70
2017-08-06T06:42:03.591Z,85.00
2017-08-06T06:44:37.840Z,84.30
2017-08-06T06:47:12.096Z,83.10
2017-08-06T06:49:46.777Z,81.10
2017-08-06T06:52:21.016Z,81.10
2017-08-06T06:54:55.261Z,81.50
2017-08-06T06:57:29.456Z,81.60
2017-08-06T07:00:03.931Z,82.00
2017-08-06T07:02:38.221Z,81.60
2017-08-06T07:05:12.519Z,81.80
2017-08-06T07:07:46.648Z,80.20
2017-08-06T07:10:20.961Z,80.30
2017-08-06T07:12:55.228Z,81.10
2017-08-06T07:15:29.556Z,81.20
2017-08-06T07:18:03.858Z,81.70
2017-08-06T07:20:38.158Z,81.20
2017-08-06T07:23:12.652Z,81.90
2017-08-06T07:25:46.987Z,81.80
2017-08-06T07:28:21.250Z,81.40
2017-08-06T07:30:55.502Z,80.30
2017-08-06T07:33:30.089Z,81.70
2017-08-06T07:36:04.496Z,81.70
2017-08-06T07:38:38.600Z,81.70
2017-08-06T07:41:13.705Z,81.80
2017-08-06T07:43:47.931Z,82.10
2017-08-06T07:46:22.226Z,81.70
2017-08-06T07:48:56.924Z,82.10
2017-08-06T07:51:31.089Z,82.10
2017-08-06T07:54:05.981Z,81.80
2017-08-06T07:56:40.304Z,81.30
2017-08-06T07:59:15.184Z,81.50
2017-08-06T08:01:49.353Z,81.50
2017-08-06T08:04:24.432Z,82.10
2017-08-06T08:06:58.770Z,82.00
2017-08-06T08:09:33.031Z,82.10
2017-08-06T08:12:07.454Z,81.60
2017-08-06T08:14:41.728Z,82.50
2017-08-06T08:17:16.485Z,81.30
2017-08-06T08:19:50.798Z,81.30
2017-08-06T08:22:25.136Z,81.50
2017-08-06T08:24:59.282Z,81.80
2017-08-06T08:27:33.912Z,81.80
2017-08-06T08:30:08.046Z,81.30
2017-08-06T08:32:42.188Z,81.30
2017-08-06T08:35:16.322Z,80.60
2017-08-06T08:37:50.504Z,80.60
2017-08-06T08:40:24.648Z,81.00
2017-08-06T08:42:58.993Z,80.30
2017-08-06T08:45:33.158Z,80.20
2017-08-06T08:48:02.361Z,80.10
2017-08-06T08:50:30.603Z,80.60
2017-08-06T08:52:58.870Z,80.00
2017-08-06T08:55:27.467Z,79.50
2017-08-06T08:57:55.777Z,79.90
2017-08-06T09:00:24.072Z,79.60
2017-08-06T09:02:52.325Z,79.10
2017-08-06T09:05:26.601Z,76.90
2017-08-06T09:08:00.732Z,78.30
2017-08-06T09:10:34.968Z,79.40
2017-08-06T09:13:09.710Z,79.30
2017-08-06T09:15:43.973Z,79.60
2017-08-06T09:18:18.104Z,80.10
2017-08-06T09:20:52.697Z,78.80
2017-08-06T09:23:26.818Z,78.80
2017-08-06T09:26:01.214Z,77.30
2017-08-06T09:28:35.357Z,77.00
2017-08-06T09:31:10.348Z,77.50
2017-08-06T09:33:44.473Z,77.90
2017-08-06T09:36:18.808Z,78.10
2017-08-06T09:38:52.944Z,78.20
2017-08-06T09:41:27.503Z,77.90
2017-08-06T09:44:01.638Z,77.90
2017-08-06T09:46:35.874Z,77.20
2017-08-06T09:49:10.385Z,77.30
2017-08-06T09:51:44.604Z,77.30
2017-08-06T09:54:18.686Z,77.30
2017-08-06T09:56:53.201Z,76.70
2017-08-06T09:59:27.459Z,76.40
2017-08-06T10:02:01.669Z,77.20
2017-08-06T10:04:35.902Z,77.50
2017-08-06T10:07:10.169Z,77.00
2017-08-06T10:09:44.316Z,76.90
2017-08-06T10:12:12.736Z,76.90
2017-08-06T10:14:46.922Z,76.60
2017-08-06T10:17:21.252Z,76.40
2017-08-06T10:19:56.081Z,76.10
2017-08-06T10:22:30.344Z,76.10
2017-08-06T10:25:04.458Z,76.20
2017-08-06T10:27:38.871Z,76.70
2017-08-06T10:30:13.559Z,76.10
2017-08-06T10:32:47.824Z,76.10
2017-08-06T10:35:22.226Z,75.90
2017-08-06T10:37:56.598Z,76.40
2017-08-06T10:40:31.013Z,76.40
2017-08-06T10:43:05.257Z,77.20
2017-08-06T10:45:39.668Z,77.60
2017-08-06T10:48:14.049Z,77.40
2017-08-06T10:50:48.236Z,77.60
2017-08-06T10:53:22.687Z,78.20
2017-08-06T10:55:57.356Z,77.90
2017-08-06T10:58:31.712Z,78.00
2017-08-06T11:01:05.996Z,79.10
2017-08-06T11:03:40.882Z,82.60
2017-08-06T11:06:15.074Z,84.80
2017-08-06T11:08:49.420Z,85.60
2017-08-06T11:11:24.210Z,86.10
2017-08-06T11:13:58.454Z,87.10
2017-08-06T11:16:32.720Z,86.70
2017-08-06T11:19:07.069Z,86.30
2017-08-06T11:21:41.216Z,85.70
2017-08-06T11:24:15.648Z,86.10
2017-08-06T11:26:49.928Z,85.70
2017-08-06T11:29:24.286Z,86.00
2017-08-06T11:31:52.524Z,85.10
2017-08-06T11:34:26.925Z,84.90
2017-08-06T11:37:01.148Z,84.80
2017-08-06T11:39:35.837Z,85.00
2017-08-06T11:42:09.958Z,85.00
2017-08-06T11:44:44.324Z,83.90
2017-08-06T11:47:18.632Z,84.80
2017-08-06T11:49:52.810Z,85.20
2017-08-06T11:52:27.425Z,85.70
2017-08-06T11:55:01.738Z,85.70
2017-08-06T11:57:36.008Z,86.70
2017-08-06T12:00:10.448Z,87.70
2017-08-06T12:02:44.832Z,88.60
2017-08-06T12:05:19.172Z,88.00
2017-08-06T12:07:53.311Z,89.10
2017-08-06T12:10:27.740Z,90.30
2017-08-06T12:13:01.920Z,90.80
2017-08-06T12:15:36.281Z,92.00
2017-08-06T12:18:10.601Z,91.10
2017-08-06T12:20:45.309Z,91.60
2017-08-06T12:23:19.482Z,94.10
2017-08-06T12:25:54.237Z,94.60
2017-08-06T12:28:28.533Z,94.60
2017-08-06T12:31:02.838Z,94.80
2017-08-06T12:33:37.194Z,93.60
2017-08-06T12:36:11.357Z,93.50
2017-08-06T12:38:45.505Z,93.60
2017-08-06T12:41:14.209Z,94.90
2017-08-06T12:43:42.449Z,94.90
2017-08-06T12:46:10.711Z,95.50
2017-08-06T12:48:38.981Z,96.00
2017-08-06T12:51:13.300Z,94.70
2017-08-06T12:53:47.677Z,94.90
2017-08-06T12:56:22.951Z,97.10
2017-08-06T12:58:57.324Z,94.90
2017-08-06T13:01:31.566Z,93.40
2017-08-06T13:04:05.785Z,94.30
2017-08-06T13:06:39.922Z,95.00
2017-08-06T13:09:14.053Z,96.20
2017-08-06T13:11:48.557Z,96.40
2017-08-06T13:14:22.853Z,96.30
2017-08-06T13:16:57.024Z,96.20
2017-08-06T13:19:31.195Z,95.60
2017-08-06T13:22:05.307Z,94.40
2017-08-06T13:24:40.087Z,95.90
2017-08-06T13:27:14.326Z,95.50
2017-08-06T13:29:48.570Z,95.60
2017-08-06T13:32:22.853Z,95.20
2017-08-06T13:34:57.194Z,96.70
2017-08-06T13:37:31.474Z,95.70
2017-08-06T13:40:05.637Z,96.50
2017-08-06T13:42:40.575Z,95.40
2017-08-06T13:45:15.342Z,96.10
2017-08-06T13:47:49.484Z,96.10
2017-08-06T13:50:24.059Z,96.10
2017-08-06T13:52:58.252Z,96.10
2017-08-06T13:55:32.611Z,96.10
2017-08-06T13:58:06.759Z,94.50
2017-08-06T14:00:41.153Z,95.30
2017-08-06T14:03:15.727Z,94.00
2017-08-06T14:05:50.482Z,94.10
2017-08-06T14:08:24.646Z,94.00
2017-08-06T14:10:59.725Z,93.70
2017-08-06T14:13:33.975Z,93.90
2017-08-06T14:16:08.239Z,93.50
2017-08-06T14:18:42.524Z,93.30
2017-08-06T14:21:16.748Z,93.20
2017-08-06T14:23:50.896Z,92.50
2017-08-06T14:26:25.288Z,92.60
2017-08-06T14:28:59.420Z,92.80
2017-08-06T14:31:33.705Z,92.20
2017-08-06T14:34:07.817Z,91.80
2017-08-06T14:36:42.143Z,92.10
2017-08-06T14:39:16.403Z,91.10
2017-08-06T14:41:50.617Z,92.40
2017-08-06T14:44:24.917Z,92.60
2017-08-06T14:46:59.492Z,91.80
2017-08-06T14:49:33.628Z,91.80
2017-08-06T14:52:08.047Z,92.20
2017-08-06T14:54:42.232Z,92.50
2017-08-06T14:57:16.410Z,92.70
2017-08-06T14:59:50.550Z,92.80
2017-08-06T15:02:24.937Z,92.90
2017-08-06T15:04:59.061Z,93.30
2017-08-06T15:07:33.558Z,94.10
2017-08-06T15:10:08.067Z,93.70
2017-08-06T15:12:42.734Z,93.30
2017-08-06T15:15:16.832Z,93.30
2017-08-06T15:17:51.640Z,92.50
2017-08-06T15:20:25.811Z,92.50
2017-08-06T15:23:00.215Z,93.10
2017-08-06T15:25:34.400Z,91.50
2017-08-06T15:28:08.729Z,90.70
2017-08-06T15:30:42.973Z,88.60
2017-08-06T15:33:17.360Z,88.50
2017-08-06T15:35:51.605Z,88.50
2017-08-06T15:38:25.765Z,89.00
2017-08-06T15:40:59.977Z,89.10
2017-08-06T15:43:34.640Z,88.20
2017-08-06T15:46:08.792Z,88.20
2017-08-06T15:48:43.189Z,88.60
2017-08-06T15:51:17.496Z,88.50
2017-08-06T15:53:51.795Z,88.10
2017-08-06T15:56:25.980Z,87.90
2017-08-06T15:59:00.180Z,88.30
2017-08-06T16:01:34.355Z,87.70
2017-08-06T16:04:08.984Z,88.20
2017-08-06T16:06:43.223Z,88.20
2017-08-06T16:09:17.515Z,87.70
2017-08-06T16:11:51.738Z,87.60
2017-08-06T16:14:26.155Z,86.90
2017-08-06T16:17:00.328Z,86.70
2017-08-06T16:19:34.716Z,86.60
2017-08-06T16:22:08.884Z,87.00
2017-08-06T16:24:43.245Z,87.10
2017-08-06T16:27:17.432Z,87.20
2017-08-06T16:29:51.740Z,86.90
2017-08-06T16:32:25.905Z,87.20
2017-08-06T16:35:00.217Z,86.60
2017-08-06T16:37:34.365Z,86.80
2017-08-06T16:40:08.553Z,85.80
2017-08-06T16:42:42.704Z,86.40
2017-08-06T16:45:16.844Z,88.30
2017-08-06T16:47:51.042Z,88.50
2017-08-06T16:50:29.300Z,88.50
2017-08-06T16:53:03.585Z,88.80
2017-08-06T16:55:37.878Z,89.20
2017-08-06T16:58:12.029Z,87.40
2017-08-06T17:00:46.358Z,88.20
2017-08-06T17:03:20.629Z,87.70
2017-08-06T17:05:54.949Z,87.30
2017-08-06T17:08:29.163Z,87.50
2017-08-06T17:11:03.430Z,86.70
2017-08-06T17:13:37.713Z,85.80
2017-08-06T17:16:06.083Z,87.30
2017-08-06T17:18:34.959Z,88.90
2017-08-06T17:21:03.198Z,88.20
2017-08-06T17:23:31.461Z,88.40
2017-08-06T17:25:59.713Z,87.90
2017-08-06T17:28:27.984Z,87.90
2017-08-06T17:30:56.220Z,86.90
2017-08-06T17:33:24.501Z,87.90
2017-08-06T17:35:58.697Z,87.20
2017-08-06T17:38:32.831Z,86.70
2017-08-06T17:41:01.117Z,86.90
2017-08-06T17:43:29.359Z,87.00
2017-08-06T17:45:57.601Z,87.40
2017-08-06T17:48:26.368Z,88.70
2017-08-06T17:50:54.605Z,88.70
2017-08-06T17:53:22.868Z,89.20
2017-08-06T17:55:51.122Z,88.60
2017-08-06T17:58:19.365Z,88.20
2017-08-06T18:00:47.667Z,87.40
2017-08-06T18:03:15.972Z,87.30
2017-08-06T18:05:44.333Z,87.80
2017-08-06T18:08:12.580Z,88.60
2017-08-06T18:10:41.693Z,88.60
2017-08-06T18:13:09.952Z,87.90
2017-08-06T18:15:38.206Z,88.20
2017-08-06T18:18:06.481Z,88.50
2017-08-06T18:20:34.748Z,87.70
2017-08-06T18:23:03.248Z,87.70
2017-08-06T18:25:31.492Z,87.10
2017-08-06T18:27:59.731Z,87.60
2017-08-06T18:30:27.991Z,87.00
2017-08-06T18:32:56.244Z,87.40
2017-08-06T18:35:24.492Z,87.40
2017-08-06T18:37:52.766Z,88.00
2017-08-06T18:40:21.019Z,88.60
2017-08-06T18:42:49.384Z,88.70
2017-08-06T18:45:17.632Z,89.90
2017-08-06T18:47:45.883Z,90.20
2017-08-06T18:50:14.160Z,90.50
2017-08-06T18:52:42.416Z,90.10
2017-08-06T18:55:10.705Z,89.70
2017-08-06T18:57:38.966Z,89.90
2017-08-06T19:00:07.217Z,90.60
2017-08-06T19:02:35.472Z,90.40
2017-08-06T19:05:03.721Z,91.30
2017-08-06T19:07:32.006Z,91.20
2017-08-06T19:10:00.302Z,91.40
2017-08-06T19:12:28.557Z,91.70
2017-08-06T19:14:56.814Z,91.90
2017-08-06T19:17:25.057Z,92.00
2017-08-06T19:19:53.333Z,92.20
2017-08-06T19:22:21.575Z,92.40
2017-08-06T19:24:50.841Z,92.60
2017-08-06T19:27:19.100Z,92.90
2017-08-06T19:29:47.351Z,92.90
2017-08-06T19:32:15.653Z,92.60
2017-08-06T19:34:43.895Z,92.40
2017-08-06T19:37:12.183Z,93.20
2017-08-06T19:39:40.427Z,94.60
2017-08-06T19:42:08.677Z,95.40
2017-08-06T19:44:37.019Z,95.50
2017-08-06T19:47:05.264Z,95.60
2017-08-06T19:49:33.520Z,95.50
2017-08-06T19:52:01.776Z,95.90
2017-08-06T19:54:30.020Z,95.30
2017-08-06T19:56:58.820Z,95.70
2017-08-06T19:59:27.067Z,95.70
2017-08-06T20:01:55.317Z,95.70
2017-08-06T20:04:23.985Z,95.30
2017-08-06T20:06:52.233Z,95.30
2017-08-06T20:09:20.518Z,95.50
2017-08-06T20:11:49.173Z,95.80
2017-08-06T20:14:17.442Z,95.80
2017-08-06T20:16:45.725Z,95.90
2017-08-06T20:19:20.454Z,96.30
2017-08-06T20:21:54.613Z,96.30
2017-08-06T20:24:28.773Z,96.30
2017-08-06T20:27:03.165Z,96.80
2017-08-06T20:29:37.380Z,96.60
2017-08-06T20:32:12.029Z,96.40
2017-08-06T20:34:46.375Z,96.50
2017-08-06T20:37:15.441Z,96.50
2017-08-06T20:39:43.710Z,96.50
2017-08-06T20:42:11.956Z,96.60
2017-08-06T20:44:40.279Z,97.00
2017-08-06T20:47:08.503Z,97.20
2017-08-06T20:49:36.792Z,97.30
2017-08-06T20:52:05.031Z,97.10
2017-08-06T20:54:33.278Z,97.30
2017-08-06T20:57:02.387Z,97.70
2017-08-06T20:59:30.660Z,98.00
2017-08-06T21:01:58.934Z,98.00
2017-08-06T21:04:28.144Z,97.50
2017-08-06T21:06:56.436Z,97.30
2017-08-06T21:09:24.724Z,97.10
2017-08-06T21:11:53.145Z,97.10
2017-08-06T21:14:21.510Z,97.10
2017-08-06T21:16:49.777Z,97.00
2017-08-06T21:19:23.994Z,97.00
2017-08-06T21:21:58.298Z,96.60
2017-08-06T21:24:32.661Z,96.50
2017-08-06T21:27:06.739Z,96.70
2017-08-06T21:29:40.978Z,96.70
2017-08-06T21:32:15.541Z,96.80
2017-08-06T21:34:49.922Z,96.80
2017-08-06T21:37:18.172Z,96.50
2017-08-06T21:39:46.461Z,96.50
2017-08-06T21:42:14.707Z,96.50
2017-08-06T21:44:42.982Z,96.40
2017-08-06T21:47:11.250Z,96.00
2017-08-06T21:49:39.505Z,95.70
2017-08-06T21:52:07.768Z,95.70
2017-08-06T21:54:36.029Z,95.80
2017-08-06T21:57:04.299Z,96.10
2017-08-06T21:59:32.557Z,96.30
2017-08-06T22:02:00.895Z,96.40
2017-08-06T22:04:29.184Z,96.70
2017-08-06T22:06:58.304Z,97.30
2017-08-06T22:09:26.549Z,97.70
2017-08-06T22:11:54.838Z,98.60
2017-08-06T22:14:23.127Z,98.90
2017-08-06T22:16:51.764Z,99.50
2017-08-06T22:19:20.021Z,99.50
2017-08-06T22:21:48.311Z,99.50
2017-08-06T22:24:27.269Z,99.50
2017-08-06T22:26:55.519Z,99.50
2017-08-06T22:29:23.792Z,99.50
2017-08-06T22:31:52.110Z,99.50
2017-08-06T22:34:20.416Z,99.50
2017-08-06T22:36:48.718Z,99.50
2017-08-06T22:39:22.996Z,99.50
2017-08-06T22:41:57.286Z,99.50
2017-08-06T22:44:31.455Z,99.50
2017-08-06T22:47:05.792Z,99.50
2017-08-06T22:49:39.965Z,99.50
2017-08-06T22:52:14.253Z,99.50
2017-08-06T22:54:48.503Z,99.50
2017-08-06T22:57:23.143Z,99.50
2017-08-06T23:00:07.214Z,99.50
2017-08-06T23:02:37.260Z,99.50
2017-08-06T23:05:11.450Z,99.50
2017-08-06T23:07:45.805Z,99.50
2017-08-06T23:10:14.140Z,99.50
2017-08-06T23:12:45.875Z,99.50
2017-08-06T23:15:14.594Z,99.50
2017-08-06T23:17:42.892Z,99.50
2017-08-06T23:20:11.279Z,99.50
2017-08-06T23:22:39.631Z,99.50
2017-08-06T23:25:08.796Z,99.50
2017-08-06T23:27:37.655Z,99.50
2017-08-06T23:30:05.905Z,99.50
2017-08-06T23:32:34.184Z,99.50
2017-08-06T23:35:02.844Z,99.50
2017-08-06T23:37:31.241Z,99.50
2017-08-06T23:39:59.516Z,99.50
2017-08-06T23:42:34.073Z,99.50
2017-08-06T23:45:02.436Z,99.50
2017-08-06T23:47:31.005Z,99.50
2017-08-06T23:49:59.330Z,99.50
2017-08-06T23:52:27.681Z,99.50
2017-08-06T23:54:56.064Z,99.50
2017-08-06T23:57:24.559Z,99.50
2017-08-06T23:59:53.218Z,99.50
